Time;durP1;ratioP1;P1;durP2;ratioP2;P2;SDS_P1;SDS_P2;PMS_P1;PMS_P2;Temp;Humidity;BMP_temperature;BMP_pressure;BME280_temperature;BME280_humidity;BME280_pressure;Samples;Min_cycle;Max_cycle;Signal;HPM_P1;HPM_P2
2022/05/04 00:00:09;;;;;;;11.25;5.95;;;;;;;13.70;58.35;99007.63;4995116;28;20057;-83
2022/05/04 00:02:35;;;;;;;12.30;6.68;;;;;;;13.63;58.43;99001.69;5010020;28;20037;-83
2022/05/04 00:05:00;;;;;;;14.30;5.80;;;;;;;13.73;58.08;99011.66;5008673;28;20517;-84
2022/05/04 00:07:25;;;;;;;11.70;6.20;;;;;;;13.65;58.47;99012.16;5026927;28;20029;-83
2022/05/04 00:09:51;;;;;;;10.43;6.78;;;;;;;13.57;58.42;99008.13;4995876;28;20028;-84
2022/05/04 00:12:16;;;;;;;11.30;6.07;;;;;;;13.56;58.06;99009.19;4976475;28;20033;-84
2022/05/04 00:14:41;;;;;;;9.35;5.18;;;;;;;13.57;58.19;99009.97;5013011;28;20029;-84
2022/05/04 00:17:07;;;;;;;10.52;6.05;;;;;;;13.46;58.38;99004.59;5032229;28;20044;-84
2022/05/04 00:19:32;;;;;;;12.07;6.35;;;;;;;13.52;58.48;99008.09;4979179;28;20041;-84
2022/05/04 00:21:57;;;;;;;12.10;6.25;;;;;;;13.45;58.29;99007.56;5007767;28;20048;-84
2022/05/04 00:24:22;;;;;;;10.30;5.82;;;;;;;13.42;58.43;99006.19;4986000;28;20030;-84
2022/05/04 00:26:48;;;;;;;10.18;5.78;;;;;;;13.46;58.24;99011.81;4990693;28;20036;-84
2022/05/04 00:29:13;;;;;;;11.00;6.95;;;;;;;13.39;58.51;99008.56;5023466;28;20034;-84
2022/05/04 00:31:39;;;;;;;16.10;6.20;;;;;;;13.35;58.33;99000.25;4979196;28;20430;-84
2022/05/04 00:34:04;;;;;;;17.70;6.28;;;;;;;13.38;58.64;99004.28;4993530;28;20025;-84
2022/05/04 00:36:31;;;;;;;9.30;5.47;;;;;;;13.56;57.91;99006.50;4974278;28;20068;-84
2022/05/04 00:38:56;;;;;;;7.65;5.93;;;;;;;13.34;58.26;99014.75;5008230;28;20029;-84
2022/05/04 00:41:22;;;;;;;9.98;6.07;;;;;;;13.23;58.31;98997.00;5020518;28;20033;-84
2022/05/04 00:43:54;;;;;;;7.70;5.75;;;;;;;13.38;57.90;99007.78;5009438;28;20053;-84
2022/05/04 00:46:21;;;;;;;10.73;6.65;;;;;;;13.22;58.29;98994.56;4992566;28;20034;-84
2022/05/04 00:48:47;;;;;;;8.02;6.47;;;;;;;13.37;58.22;99005.34;4986893;28;20082;-84
2022/05/04 00:51:12;;;;;;;12.27;6.18;;;;;;;13.18;58.68;99007.69;5028589;28;20121;-84
2022/05/04 00:53:40;;;;;;;10.32;6.13;;;;;;;13.18;58.00;99004.22;5008252;28;20385;-84
2022/05/04 00:56:08;;;;;;;11.13;6.15;;;;;;;13.15;58.17;99015.47;5006537;28;20033;-84
2022/05/04 01:01:27;;;;;;;8.90;6.05;;;;;;;13.21;58.22;99011.75;4999704;28;20041;-84
2022/05/04 01:03:54;;;;;;;8.40;5.70;;;;;;;13.06;58.82;99017.03;5007580;28;20040;-83
2022/05/04 01:06:19;;;;;;;9.50;6.03;;;;;;;12.98;59.04;99012.09;5010804;28;20116;-83
2022/05/04 01:08:45;;;;;;;9.70;6.05;;;;;;;12.98;58.67;99009.44;5008771;28;20029;-83
2022/05/04 01:11:10;;;;;;;8.32;5.45;;;;;;;12.95;58.62;99008.09;4993787;28;20116;-83
2022/05/04 01:13:35;;;;;;;12.00;6.22;;;;;;;12.97;59.04;99011.31;5008370;28;20029;-83
2022/05/04 01:16:00;;;;;;;9.93;5.68;;;;;;;12.96;59.04;99007.00;5026231;28;20108;-83
2022/05/04 01:18:26;;;;;;;10.23;5.97;;;;;;;12.96;59.40;99008.88;5008970;28;21251;-83
2022/05/04 01:20:51;;;;;;;14.00;5.63;;;;;;;12.93;59.05;98990.66;5007807;28;20048;-83
2022/05/04 01:23:17;;;;;;;8.23;5.97;;;;;;;12.91;59.53;99006.97;5010070;28;20025;-83
2022/05/04 01:25:42;;;;;;;13.43;6.00;;;;;;;12.93;59.59;99001.38;5026570;28;20033;-83
2022/05/04 01:28:07;;;;;;;12.02;6.55;;;;;;;12.91;59.35;98996.25;5008355;28;20078;-83
2022/05/04 01:30:35;;;;;;;8.00;5.88;;;;;;;12.87;59.56;98992.50;5025519;28;20049;-83
2022/05/04 01:33:01;;;;;;;8.23;5.55;;;;;;;12.84;59.52;98995.72;4977918;28;20400;-83
2022/05/04 01:35:26;;;;;;;7.97;5.55;;;;;;;12.84;59.34;98998.38;5008657;28;20025;-83
2022/05/04 01:37:51;;;;;;;10.40;6.03;;;;;;;12.80;59.58;99003.44;4993340;28;20554;-83
2022/05/04 01:40:17;;;;;;;9.05;5.50;;;;;;;12.81;59.72;99001.56;4992619;28;20587;-84
2022/05/04 01:42:42;;;;;;;9.65;5.20;;;;;;;12.79;59.62;99003.72;5022966;28;20091;-84
2022/05/04 01:45:09;;;;;;;12.02;5.55;;;;;;;12.80;59.42;98998.09;4970645;28;20121;-83
2022/05/04 01:47:35;;;;;;;11.73;5.53;;;;;;;12.90;58.91;99002.69;4976121;28;20032;-83
2022/05/04 01:50:00;;;;;;;7.45;5.38;;;;;;;13.05;58.89;98997.44;5006231;28;20025;-83
2022/05/04 01:52:26;;;;;;;11.98;6.32;;;;;;;13.02;58.85;98992.56;4988489;28;20492;-83
2022/05/04 01:54:52;;;;;;;10.48;5.72;;;;;;;12.98;58.93;99001.38;5002522;28;20038;-83
2022/05/04 01:57:17;;;;;;;15.13;5.60;;;;;;;12.91;58.78;98996.25;4991622;28;20025;-83
2022/05/04 01:59:42;;;;;;;7.63;5.75;;;;;;;12.97;58.39;99005.16;5004747;28;20033;-83
2022/05/04 02:02:08;;;;;;;9.32;6.07;;;;;;;13.05;58.63;99004.69;5001744;28;20025;-83
2022/05/04 02:04:35;;;;;;;9.65;5.63;;;;;;;12.75;59.55;99007.97;5024323;28;20029;-83
2022/05/04 02:07:01;;;;;;;9.85;5.88;;;;;;;12.86;58.68;98998.94;5004280;28;20785;-84
2022/05/04 02:09:27;;;;;;;12.38;5.38;;;;;;;12.84;58.39;98990.34;5006194;28;20029;-84
2022/05/04 02:11:52;;;;;;;9.35;5.55;;;;;;;12.84;58.63;99000.25;4991172;28;20544;-84
2022/05/04 02:14:19;;;;;;;10.18;6.10;;;;;;;12.85;58.78;99002.66;4980197;28;20045;-84
2022/05/04 02:16:46;;;;;;;9.93;5.82;;;;;;;12.75;58.94;99005.28;4992956;28;20041;-84
2022/05/04 02:19:12;;;;;;;13.68;5.70;;;;;;;12.90;58.65;98993.84;4988589;28;20026;-83
2022/05/04 02:21:37;;;;;;;14.70;5.95;;;;;;;12.69;59.12;98993.72;4984243;28;20508;-84
2022/05/04 02:24:02;;;;;;;12.15;5.72;;;;;;;12.66;58.87;98994.25;5009276;28;20025;-84
2022/05/04 02:26:28;;;;;;;8.52;5.28;;;;;;;12.74;59.07;98990.28;5004324;28;20045;-83
2022/05/04 02:28:54;;;;;;;13.43;5.95;;;;;;;12.73;58.75;98996.72;5005503;28;20037;-83
2022/05/04 02:31:19;;;;;;;9.20;5.72;;;;;;;12.75;59.33;99002.63;5031621;28;20032;-83
2022/05/04 02:33:44;;;;;;;9.35;4.82;;;;;;;12.66;58.99;99001.47;5005559;28;20045;-83
2022/05/04 02:38:54;;;;;;;9.95;5.82;;;;;;;12.68;58.66;98992.13;5026448;28;20107;-83
2022/05/04 02:41:19;;;;;;;6.75;6.07;;;;;;;12.60;59.58;98992.59;5024895;28;20492;-83
2022/05/04 02:43:44;;;;;;;8.63;4.88;;;;;;;12.60;59.57;98989.91;4974745;28;20029;-83
2022/05/04 02:46:13;;;;;;;10.73;5.63;;;;;;;12.53;59.55;98984.00;4973835;28;20037;-83
2022/05/04 02:48:38;;;;;;;14.73;5.63;;;;;;;12.51;60.14;98979.97;5027363;28;20083;-83
2022/05/04 02:51:03;;;;;;;9.00;5.53;;;;;;;12.55;59.85;98992.56;4981004;28;20030;-84
2022/05/04 02:53:29;;;;;;;13.15;5.75;;;;;;;12.49;59.48;98982.88;4974964;28;20084;-84
2022/05/04 02:55:54;;;;;;;6.70;5.93;;;;;;;12.47;59.83;98979.66;4990104;28;20018;-84
2022/05/04 02:58:19;;;;;;;12.45;6.38;;;;;;;12.44;59.91;98976.69;4971349;28;20235;-83
2022/05/04 03:00:45;;;;;;;8.77;5.13;;;;;;;12.55;59.50;98986.41;4989549;28;20034;-83
2022/05/04 03:03:10;;;;;;;10.90;6.00;;;;;;;12.47;59.97;98994.94;4993126;28;20391;-83
2022/05/04 03:05:36;;;;;;;11.40;6.63;;;;;;;12.40;60.22;98979.09;5021867;28;20034;-83
2022/05/04 03:08:01;;;;;;;14.98;5.85;;;;;;;12.49;59.78;98982.09;5005063;28;20390;-83
2022/05/04 03:10:26;;;;;;;12.48;6.57;;;;;;;12.50;59.84;98973.78;5010484;28;20497;-83
2022/05/04 03:12:52;;;;;;;9.98;5.65;;;;;;;12.54;59.23;98974.06;5002147;28;20077;-84
2022/05/04 03:15:17;;;;;;;9.80;5.70;;;;;;;12.45;59.89;98963.03;5014390;28;20485;-83
2022/05/04 03:17:42;;;;;;;9.10;6.50;;;;;;;12.38;60.03;98972.38;5010981;28;20040;-83
2022/05/04 03:20:10;;;;;;;15.55;6.97;;;;;;;12.46;59.95;98972.69;4988399;28;20077;-83
2022/05/04 03:22:35;;;;;;;10.63;6.38;;;;;;;12.45;59.30;98970.28;4997496;28;20135;-83
2022/05/04 03:25:05;;;;;;;8.20;6.20;;;;;;;12.37;59.92;98971.56;4980450;28;20400;-83
2022/05/04 03:27:30;;;;;;;9.10;6.32;;;;;;;12.43;60.13;98978.56;4993093;28;20030;-83
2022/05/04 03:29:55;;;;;;;15.15;6.65;;;;;;;12.36;59.77;98975.28;5012790;28;20033;-83
2022/05/04 03:32:21;;;;;;;14.98;6.20;;;;;;;12.38;60.11;98980.41;4995362;28;20037;-83
2022/05/04 03:34:47;;;;;;;12.27;6.35;;;;;;;12.35;60.11;98967.50;5031192;28;20028;-83
2022/05/04 03:37:13;;;;;;;10.57;6.15;;;;;;;12.35;60.18;98970.19;5011509;28;20087;-83
2022/05/04 03:39:38;;;;;;;12.25;6.55;;;;;;;12.29;60.01;98965.88;4994274;28;20066;-83
2022/05/04 03:42:04;;;;;;;15.23;7.03;;;;;;;12.35;59.73;98959.50;4997340;28;20734;-83
2022/05/04 03:44:29;;;;;;;9.57;6.13;;;;;;;12.31;59.75;98969.91;4997449;28;20044;-84
2022/05/04 03:46:55;;;;;;;9.77;6.93;;;;;;;12.27;60.12;98966.13;4998408;28;20033;-83
2022/05/04 03:49:22;;;;;;;9.70;6.10;;;;;;;12.19;60.50;98968.47;5007547;28;20038;-84
2022/05/04 03:51:48;;;;;;;9.90;6.10;;;;;;;12.41;60.12;98969.16;5013921;28;20500;-83
2022/05/04 03:54:13;;;;;;;12.02;7.53;;;;;;;12.33;60.50;98969.66;4994424;28;20064;-83
2022/05/04 03:56:40;;;;;;;10.52;6.40;;;;;;;12.22;60.16;98978.66;4999488;28;20481;-84
2022/05/04 03:59:06;;;;;;;15.75;5.53;;;;;;;12.17;60.66;98975.94;5029251;28;20025;-84
2022/05/04 04:01:32;;;;;;;9.20;5.75;;;;;;;12.13;60.68;98977.50;5011086;28;20079;-84
2022/05/04 04:03:57;;;;;;;11.60;6.15;;;;;;;12.14;60.94;98979.94;5011160;28;20095;-83
2022/05/04 04:06:23;;;;;;;8.82;5.82;;;;;;;12.19;60.76;98979.97;4994971;28;20029;-83
2022/05/04 04:08:49;;;;;;;16.40;5.80;;;;;;;12.08;60.69;98970.25;4997242;28;20124;-83
2022/05/04 04:11:14;;;;;;;12.15;6.00;;;;;;;11.99;61.38;98969.13;4979152;28;20033;-83
2022/05/04 04:13:40;;;;;;;8.93;5.72;;;;;;;12.00;61.45;98984.91;5015148;28;20495;-83
2022/05/04 04:16:05;;;;;;;11.13;6.65;;;;;;;11.96;61.54;98986.47;4997027;28;20095;-83
2022/05/04 04:18:30;;;;;;;10.05;6.35;;;;;;;11.98;61.97;98995.06;4989725;28;20033;-83
2022/05/04 04:23:41;;;;;;;6.45;5.75;;;;;;;11.94;61.75;98991.28;5031913;28;20562;-83
2022/05/04 04:26:08;;;;;;;9.75;5.88;;;;;;;11.93;61.46;98994.19;5009776;28;20021;-83
2022/05/04 04:28:35;;;;;;;13.45;6.00;;;;;;;11.93;61.33;98992.31;4978642;28;20653;-83
2022/05/04 04:31:02;;;;;;;9.65;6.70;;;;;;;11.88;61.52;98981.56;4993224;28;20113;-82
2022/05/04 04:33:29;;;;;;;16.70;6.60;;;;;;;11.91;61.75;98985.59;5006364;28;20025;-84
2022/05/04 04:35:58;;;;;;;12.93;6.32;;;;;;;11.95;61.26;98989.38;4997623;28;20014;-84
2022/05/04 04:38:23;;;;;;;17.67;6.82;;;;;;;11.94;61.36;98987.78;5005999;28;20029;-83
2022/05/04 04:40:50;;;;;;;9.98;6.20;;;;;;;11.95;60.95;98986.72;4991351;28;20088;-84
2022/05/04 04:43:15;;;;;;;9.88;6.28;;;;;;;11.94;61.68;98985.94;4983072;28;20128;-84
2022/05/04 04:45:44;;;;;;;17.85;6.88;;;;;;;11.88;61.40;98994.16;5012020;28;20129;-84
2022/05/04 04:48:10;;;;;;;11.73;6.15;;;;;;;11.86;62.00;99004.31;5023818;28;20071;-83
2022/05/04 04:50:36;;;;;;;13.73;7.22;;;;;;;12.04;61.47;98998.56;5023202;28;20037;-83
2022/05/04 04:53:01;;;;;;;16.92;6.10;;;;;;;11.95;61.41;98987.53;4991233;28;20045;-83
2022/05/04 04:55:27;;;;;;;13.50;7.13;;;;;;;11.94;61.93;99004.66;5043059;28;20045;-83
2022/05/04 04:57:52;;;;;;;11.65;7.05;;;;;;;11.95;61.84;99014.28;4983591;28;20033;-83
2022/05/04 05:00:17;;;;;;;14.82;7.30;;;;;;;11.96;61.53;98999.03;5006339;28;20037;-83
2022/05/04 05:02:44;;;;;;;10.65;6.18;;;;;;;11.93;61.81;99007.56;4997819;28;20539;-83
2022/05/04 05:05:09;;;;;;;15.18;6.68;;;;;;;11.92;62.02;99020.16;5002820;28;20140;-83
2022/05/04 05:07:36;;;;;;;12.00;6.78;;;;;;;11.91;62.15;99023.06;5007996;28;20120;-84
2022/05/04 05:10:02;;;;;;;14.05;6.80;;;;;;;11.93;62.03;99021.75;5005093;28;20068;-85
2022/05/04 05:12:27;;;;;;;15.65;7.43;;;;;;;11.72;62.88;99011.09;5011679;28;20525;-84
2022/05/04 05:17:36;;;;;;;17.27;7.57;;;;;;;11.89;62.53;99015.28;5003340;28;20044;-83
2022/05/04 05:20:06;;;;;;;10.73;6.18;;;;;;;12.02;61.84;99008.72;5016109;28;20029;-84
2022/05/04 05:22:31;;;;;;;12.80;6.38;;;;;;;12.06;61.76;99019.75;5012337;28;20035;-83
2022/05/04 05:24:56;;;;;;;10.52;5.50;;;;;;;12.08;61.46;99006.91;5013767;28;20033;-83
2022/05/04 05:27:22;;;;;;;11.27;5.72;;;;;;;12.13;61.83;99014.97;5030502;28;20033;-83
2022/05/04 05:29:48;;;;;;;15.93;6.10;;;;;;;12.08;61.62;98997.00;5007449;28;20388;-83
2022/05/04 05:32:13;;;;;;;10.73;5.45;;;;;;;12.15;61.21;99005.63;4993595;28;20268;-83
2022/05/04 05:34:39;;;;;;;8.85;6.15;;;;;;;12.14;61.42;99000.53;5027230;28;21385;-83
2022/05/04 05:37:04;;;;;;;8.80;5.30;;;;;;;12.21;61.49;99009.16;5029245;28;20044;-83
2022/05/04 05:39:29;;;;;;;8.07;5.43;;;;;;;12.21;61.50;99006.50;5017133;28;20040;-83
2022/05/04 05:41:55;;;;;;;12.15;5.88;;;;;;;12.18;61.19;99004.31;5030174;28;20079;-83
2022/05/04 05:44:20;;;;;;;12.40;5.15;;;;;;;12.23;60.84;99005.16;5008581;28;20051;-83
2022/05/04 05:46:45;;;;;;;7.82;5.63;;;;;;;12.22;60.90;99003.56;5028984;28;20036;-83
2022/05/04 05:49:11;;;;;;;10.70;5.97;;;;;;;12.32;61.37;98998.28;4996107;28;20041;-83
2022/05/04 05:51:36;;;;;;;11.20;5.75;;;;;;;12.35;60.85;98996.97;4978688;28;20037;-83
2022/05/04 05:54:01;;;;;;;6.90;5.65;;;;;;;12.35;61.04;99005.00;5009334;28;20125;-83
2022/05/04 05:56:27;;;;;;;9.70;5.35;;;;;;;12.39;61.08;99008.75;5003704;28;20482;-82
2022/05/04 05:58:52;;;;;;;9.57;5.78;;;;;;;12.39;60.37;99001.53;4995463;28;20030;-83
2022/05/04 06:01:17;;;;;;;9.13;5.13;;;;;;;12.40;60.80;99008.53;4991539;28;20045;-83
2022/05/04 06:03:43;;;;;;;10.25;5.32;;;;;;;12.46;60.89;98994.09;5003623;28;20034;-82
2022/05/04 06:06:08;;;;;;;8.80;5.32;;;;;;;12.45;60.80;98994.38;5029640;28;20041;-83
2022/05/04 06:08:34;;;;;;;9.18;5.65;;;;;;;12.47;60.57;98986.91;4995117;28;20029;-83
2022/05/04 06:10:59;;;;;;;9.75;5.32;;;;;;;12.51;60.46;98996.03;5011879;28;20070;-83
2022/05/04 06:13:25;;;;;;;14.07;5.72;;;;;;;12.48;60.51;98994.66;4996122;28;20037;-83
2022/05/04 06:15:50;;;;;;;9.52;5.43;;;;;;;12.53;60.42;98997.38;4977357;28;20068;-83
2022/05/04 06:18:15;;;;;;;8.68;5.55;;;;;;;12.47;60.41;98990.34;4994736;28;20028;-83
2022/05/04 06:20:41;;;;;;;8.95;5.25;;;;;;;12.53;60.18;98988.53;4977904;28;20045;-83
2022/05/04 06:23:06;;;;;;;10.38;5.68;;;;;;;12.55;60.18;98991.75;5029742;28;20036;-83
2022/05/04 06:25:32;;;;;;;16.30;6.30;;;;;;;12.54;60.09;98990.94;5004065;28;20022;-83
2022/05/04 06:27:57;;;;;;;8.75;5.47;;;;;;;12.56;60.38;98999.53;4995324;28;20033;-83
2022/05/04 06:35:53;;;;;;;10.93;6.47;;;;;;;12.64;60.96;98985.69;5027870;28;20508;-83
2022/05/04 06:38:18;;;;;;;7.45;5.53;;;;;;;12.72;60.17;98984.38;5011713;28;20063;-83
2022/05/04 06:40:44;;;;;;;11.82;6.10;;;;;;;12.83;59.84;98991.41;4993415;28;20441;-83
2022/05/04 06:43:10;;;;;;;7.70;5.40;;;;;;;12.84;59.46;98993.03;5028777;28;20059;-83
2022/05/04 06:45:35;;;;;;;9.38;6.05;;;;;;;12.96;59.72;99003.53;5009346;28;20034;-83
2022/05/04 06:48:02;;;;;;;10.98;6.30;;;;;;;13.00;60.06;99000.06;4994748;28;20124;-83
2022/05/04 06:50:28;;;;;;;11.40;6.18;;;;;;;12.98;59.53;98996.84;4980268;28;20052;-83
2022/05/04 06:52:53;;;;;;;9.45;5.70;;;;;;;13.00;59.98;99002.75;4993299;28;20489;-83
2022/05/04 06:55:18;;;;;;;12.80;5.32;;;;;;;13.08;59.55;99001.50;5028980;28;20481;-83
2022/05/04 06:57:44;;;;;;;10.57;5.50;;;;;;;13.05;59.99;98997.44;5011478;28;20033;-83
2022/05/04 07:00:09;;;;;;;10.50;5.72;;;;;;;13.15;59.80;98997.50;4992143;28;20037;-83
2022/05/04 07:02:35;;;;;;;10.32;6.20;;;;;;;13.26;59.58;98998.34;5006591;28;20037;-83
2022/05/04 07:05:01;;;;;;;12.52;6.85;;;;;;;13.24;59.67;99003.97;5027895;28;20065;-83
2022/05/04 07:07:27;;;;;;;11.32;6.07;;;;;;;13.33;59.39;98999.72;5024059;28;20026;-83
2022/05/04 07:09:53;;;;;;;13.60;6.80;;;;;;;13.38;59.46;98990.91;5025828;28;20443;-83
2022/05/04 07:12:19;;;;;;;10.52;6.25;;;;;;;13.38;59.58;99001.63;4991744;28;20099;-83
2022/05/04 07:14:44;;;;;;;14.40;7.65;;;;;;;13.44;59.63;98997.88;5006733;28;20065;-83
2022/05/04 07:17:10;;;;;;;14.43;6.75;;;;;;;13.55;59.65;98996.84;5004807;28;20116;-83
2022/05/04 07:19:35;;;;;;;8.93;6.18;;;;;;;13.58;59.18;98999.00;4974638;28;20034;-82
2022/05/04 07:22:00;;;;;;;12.52;6.57;;;;;;;13.61;59.26;99003.06;4984876;28;20620;-83
2022/05/04 07:24:26;;;;;;;13.25;6.72;;;;;;;13.62;59.25;99004.63;5001462;28;20040;-83
2022/05/04 07:26:51;;;;;;;11.88;5.70;;;;;;;13.78;59.27;99000.94;4994078;28;20103;-83
2022/05/04 07:29:16;;;;;;;16.45;7.20;;;;;;;13.89;58.99;99011.41;5009225;28;20156;-83
2022/05/04 07:31:42;;;;;;;18.25;6.43;;;;;;;13.96;59.09;99013.84;4990404;28;20052;-82
2022/05/04 07:34:07;;;;;;;13.00;6.50;;;;;;;13.85;59.19;98986.19;5007851;28;20477;-83
2022/05/04 07:36:33;;;;;;;11.30;6.47;;;;;;;14.17;58.77;99012.81;5007153;28;20038;-83
2022/05/04 07:38:58;;;;;;;10.63;6.45;;;;;;;14.13;59.15;98996.41;4990569;28;20029;-83
2022/05/04 07:44:07;;;;;;;19.35;6.68;;;;;;;14.23;58.87;99001.00;5023655;28;20525;-82
2022/05/04 07:46:33;;;;;;;15.20;6.80;;;;;;;14.24;58.86;98999.94;4992762;28;20026;-83
2022/05/04 07:48:59;;;;;;;9.50;6.70;;;;;;;14.40;58.44;98996.19;4994701;28;20052;-83
2022/05/04 07:51:25;;;;;;;11.45;6.15;;;;;;;14.45;58.44;98996.19;4994927;28;20021;-83
2022/05/04 07:53:50;;;;;;;10.70;6.55;;;;;;;14.59;58.23;98997.22;5029106;28;20341;-82
2022/05/04 07:56:16;;;;;;;10.82;5.80;;;;;;;14.68;58.37;99001.00;5012815;28;20037;-83
2022/05/04 07:58:41;;;;;;;10.80;7.00;;;;;;;14.70;58.31;98998.84;5013074;28;20025;-83
2022/05/04 08:06:34;;;;;;;10.02;6.43;;;;;;;14.95;57.95;98998.00;5016605;28;20044;-83
2022/05/04 08:09:00;;;;;;;13.00;7.07;;;;;;;14.91;58.02;98989.69;4995780;28;21694;-83
2022/05/04 08:11:25;;;;;;;10.52;6.43;;;;;;;15.01;57.56;98994.19;5013607;28;20018;-82
2022/05/04 08:13:50;;;;;;;9.05;6.30;;;;;;;15.13;57.58;98993.91;5013416;28;20043;-82
2022/05/04 08:16:15;;;;;;;9.23;6.30;;;;;;;15.24;57.51;98993.59;5014649;28;20429;-83
2022/05/04 08:18:41;;;;;;;14.20;6.30;;;;;;;15.32;57.22;98987.66;5008705;28;20116;-82
2022/05/04 08:21:07;;;;;;;15.73;6.47;;;;;;;15.33;57.53;98996.53;4998218;28;20029;-82
2022/05/04 08:23:33;;;;;;;11.00;6.18;;;;;;;15.42;57.25;98986.81;5012490;28;20028;-83
2022/05/04 08:25:58;;;;;;;12.00;7.28;;;;;;;15.48;57.03;98988.41;5004556;28;20026;-83
2022/05/04 08:28:24;;;;;;;8.48;6.28;;;;;;;15.53;56.89;98991.09;4991956;28;20424;-83
2022/05/04 08:30:49;;;;;;;13.57;7.22;;;;;;;15.68;56.78;98991.78;5012959;28;20132;-83
2022/05/04 08:33:15;;;;;;;14.55;5.95;;;;;;;15.68;56.81;98991.00;5008021;28;20045;-83
2022/05/04 08:35:41;;;;;;;12.07;6.43;;;;;;;15.68;57.11;98996.41;5030764;28;20061;-83
2022/05/04 08:38:06;;;;;;;8.85;5.82;;;;;;;15.73;56.97;98991.78;5027646;28;20045;-83
2022/05/04 08:40:32;;;;;;;7.68;5.72;;;;;;;15.81;56.34;98995.78;4987547;28;20025;-83
2022/05/04 08:43:00;;;;;;;13.90;6.10;;;;;;;15.81;56.08;98993.09;5031194;28;20099;-83
2022/05/04 08:45:25;;;;;;;12.93;6.10;;;;;;;15.73;56.89;98978.31;4997441;28;20037;-83
2022/05/04 08:47:50;;;;;;;8.57;5.75;;;;;;;15.84;56.44;98980.94;5012560;28;20397;-83
2022/05/04 08:50:17;;;;;;;17.30;6.57;;;;;;;15.85;56.63;98983.38;4994042;28;20034;-82
2022/05/04 08:52:53;;;;;;;9.75;6.25;;;;;;;15.81;56.61;98990.41;5012351;28;20038;-83
2022/05/04 08:55:19;;;;;;;12.90;5.93;;;;;;;15.89;56.66;98984.41;5009879;28;20057;-83
2022/05/04 08:57:44;;;;;;;13.32;6.53;;;;;;;15.89;56.46;98979.03;5005586;28;20064;-83
2022/05/04 09:00:13;;;;;;;14.93;6.72;;;;;;;15.87;56.40;98978.50;5031805;28;20056;-83
2022/05/04 09:02:38;;;;;;;13.05;6.70;;;;;;;15.94;56.67;98976.31;5014104;28;20048;-83
2022/05/04 09:05:27;;;;;;;11.07;6.63;;;;;;;16.07;56.24;98981.06;5012990;28;20037;-83
2022/05/04 09:07:54;;;;;;;11.07;6.28;;;;;;;16.07;56.67;98983.75;5022071;28;20029;-83
2022/05/04 09:10:22;;;;;;;14.68;6.70;;;;;;;16.10;56.47;98975.09;5005465;28;20115;-83
2022/05/04 09:12:50;;;;;;;11.10;5.97;;;;;;;16.12;56.46;98972.94;5012448;28;20025;-82
2022/05/04 09:15:20;;;;;;;9.52;6.35;;;;;;;16.19;56.60;98978.81;5008134;28;20048;-82
2022/05/04 09:17:46;;;;;;;12.70;7.18;;;;;;;16.29;56.44;98972.53;5011589;28;20029;-83
2022/05/04 09:22:55;;;;;;;10.15;6.57;;;;;;;16.57;56.01;98974.47;5028366;28;20500;-83
2022/05/04 09:25:20;;;;;;;11.30;6.18;;;;;;;16.73;55.86;98964.34;4977122;28;20034;-83
2022/05/04 09:27:46;;;;;;;12.30;6.25;;;;;;;16.99;55.52;98968.38;5007091;28;20378;-83
2022/05/04 09:30:12;;;;;;;12.32;7.28;;;;;;;17.11;55.61;98963.38;5012062;28;20040;-83
2022/05/04 09:32:40;;;;;;;9.15;5.97;;;;;;;17.36;54.97;98960.38;5012301;28;20037;-83
2022/05/04 09:35:15;;;;;;;10.23;5.95;;;;;;;17.42;55.47;98958.41;5012078;28;20083;-83
2022/05/04 09:45:55;;;;;;;15.65;6.88;;;;;;;17.77;54.71;98960.66;5015507;28;20067;-83
2022/05/04 09:48:29;;;;;;;9.63;6.15;;;;;;;17.82;54.16;98958.66;5005631;28;20029;-83
2022/05/04 09:51:00;;;;;;;16.35;6.65;;;;;;;17.80;54.34;98966.25;5011774;28;20045;-83
2022/05/04 09:53:26;;;;;;;13.30;6.25;;;;;;;17.73;55.33;98957.75;5029849;28;20489;-83
2022/05/04 09:55:52;;;;;;;10.15;5.45;;;;;;;17.69;54.57;98962.09;4991936;28;20549;-83
2022/05/04 09:58:18;;;;;;;11.23;5.32;;;;;;;17.65;54.42;98952.97;5011174;28;20029;-82
2022/05/04 10:00:43;;;;;;;9.00;5.22;;;;;;;17.71;54.41;98951.81;5004292;28;20026;-83
2022/05/04 10:03:11;;;;;;;12.00;6.10;;;;;;;17.77;54.27;98956.06;5007858;28;20432;-83
2022/05/04 10:05:37;;;;;;;8.93;5.80;;;;;;;17.76;54.87;98953.63;4999339;28;20025;-83
2022/05/04 10:08:03;;;;;;;11.13;6.00;;;;;;;17.77;54.25;98949.84;5001113;28;20082;-83
2022/05/04 10:10:29;;;;;;;9.60;6.30;;;;;;;17.76;54.65;98949.03;5011563;28;20560;-83
2022/05/04 10:12:54;;;;;;;8.05;5.57;;;;;;;17.76;54.32;98940.94;5029520;28;20029;-83
2022/05/04 10:15:20;;;;;;;9.95;5.30;;;;;;;17.86;54.23;98950.81;5008614;28;20025;-83
2022/05/04 10:17:53;;;;;;;7.63;6.10;;;;;;;17.87;54.42;98944.28;5028223;28;20553;-83
2022/05/04 10:20:21;;;;;;;10.50;6.05;;;;;;;17.87;54.61;98950.50;5026400;28;20032;-83
2022/05/04 10:22:58;;;;;;;7.10;5.50;;;;;;;17.95;54.21;98957.94;4996126;28;20389;-83
2022/05/04 10:25:26;;;;;;;8.95;5.80;;;;;;;17.96;53.64;98946.03;5010149;28;20071;-83
2022/05/04 10:28:04;;;;;;;12.48;5.93;;;;;;;17.95;54.30;98941.72;5022054;28;20033;-83
2022/05/04 10:30:34;;;;;;;11.25;6.65;;;;;;;17.91;54.38;98940.72;5002690;28;20455;-83
2022/05/04 10:33:09;;;;;;;13.40;6.50;;;;;;;17.92;54.63;98942.31;4989413;28;20568;-83
2022/05/04 10:35:37;;;;;;;12.50;6.65;;;;;;;17.79;54.25;98931.47;5010842;28;20645;-81
2022/05/04 10:38:05;;;;;;;18.13;7.15;;;;;;;17.72;54.97;98937.22;5007554;28;20037;-81
2022/05/04 10:40:42;;;;;;;14.85;6.90;;;;;;;17.72;54.93;98948.03;4986218;28;20033;-81
2022/05/04 10:43:17;;;;;;;7.43;6.07;;;;;;;17.68;55.76;98940.78;5004084;28;20033;-81
2022/05/04 10:45:45;;;;;;;14.07;7.07;;;;;;;17.58;57.18;98941.72;4989278;28;20060;-81
2022/05/04 10:48:19;;;;;;;14.60;6.97;;;;;;;17.56;57.41;98933.13;4992894;28;20043;-81
2022/05/04 10:50:50;;;;;;;13.88;6.55;;;;;;;17.47;57.69;98937.56;5026820;28;20017;-81
2022/05/04 10:53:25;;;;;;;10.82;7.53;;;;;;;17.49;58.66;98929.16;5021971;28;20036;-81
2022/05/04 10:56:05;;;;;;;11.18;6.95;;;;;;;17.50;58.18;98939.69;5003177;28;20036;-81
2022/05/04 10:58:35;;;;;;;13.02;7.25;;;;;;;17.42;58.31;98932.22;5008750;28;20401;-81
2022/05/04 11:01:04;;;;;;;15.32;7.32;;;;;;;17.41;58.36;98943.31;4999056;28;20022;-82
2022/05/04 11:03:37;;;;;;;11.75;7.60;;;;;;;17.39;58.31;98932.78;5026961;28;20156;-82
2022/05/04 11:06:07;;;;;;;12.73;7.78;;;;;;;17.33;58.63;98927.75;5011109;28;20497;-82
2022/05/04 11:08:35;;;;;;;10.13;6.45;;;;;;;17.40;59.17;98933.59;5024312;28;20108;-82
2022/05/04 11:11:00;;;;;;;15.68;8.00;;;;;;;17.44;58.33;98923.84;4989796;28;20038;-82
2022/05/04 11:13:26;;;;;;;14.13;6.57;;;;;;;17.40;58.64;98933.59;5025486;28;20033;-82
2022/05/04 11:15:55;;;;;;;8.95;5.97;;;;;;;17.34;58.72;98927.50;4986048;28;20837;-82
2022/05/04 11:18:20;;;;;;;13.95;7.88;;;;;;;17.29;58.45;98922.16;4988366;28;20742;-82
2022/05/04 11:20:46;;;;;;;11.93;7.53;;;;;;;17.31;58.73;98925.34;5020835;28;20108;-82
2022/05/04 11:23:12;;;;;;;9.80;7.20;;;;;;;17.38;58.03;98919.59;5010369;28;20708;-82
2022/05/04 11:25:37;;;;;;;13.20;6.75;;;;;;;17.35;58.45;98922.88;4989298;28;20644;-82
2022/05/04 11:28:03;;;;;;;9.52;6.90;;;;;;;17.28;58.64;98925.16;4988177;28;20040;-83
2022/05/04 11:30:28;;;;;;;15.07;7.30;;;;;;;17.28;58.54;98925.16;5022798;28;20038;-83
2022/05/04 11:32:53;;;;;;;12.13;7.97;;;;;;;17.25;58.99;98924.59;5018483;28;20025;-83
2022/05/04 11:35:19;;;;;;;13.30;7.78;;;;;;;17.19;58.56;98919.56;5005467;28;20382;-83
2022/05/04 11:37:44;;;;;;;12.07;8.23;;;;;;;17.22;58.76;98925.22;5021037;28;20040;-83
2022/05/04 11:40:14;;;;;;;9.50;6.68;;;;;;;17.11;58.67;98922.91;4990948;28;20295;-83
2022/05/04 11:42:39;;;;;;;8.18;6.75;;;;;;;17.11;59.33;98931.00;4994189;28;20091;-83
2022/05/04 11:45:05;;;;;;;12.15;7.70;;;;;;;17.12;58.90;98921.84;5026103;28;20037;-83
2022/05/04 11:47:30;;;;;;;8.60;7.20;;;;;;;17.05;59.07;98921.38;5011428;28;20044;-83
2022/05/04 11:49:55;;;;;;;12.45;9.27;;;;;;;17.04;59.27;98920.56;4995677;28;20044;-84
2022/05/04 11:52:21;;;;;;;8.85;7.28;;;;;;;17.01;59.00;98917.66;5007155;28;20521;-83
2022/05/04 11:54:46;;;;;;;9.55;7.07;;;;;;;17.02;58.96;98916.56;5010644;28;20416;-83
2022/05/04 11:57:12;;;;;;;12.18;8.20;;;;;;;16.95;59.21;98911.50;5005976;28;20052;-83
2022/05/04 11:59:37;;;;;;;12.35;8.13;;;;;;;16.97;58.94;98920.09;5014238;28;20151;-83